Time;durP1;ratioP1;P1;durP2;ratioP2;P2;SDS_P1;SDS_P2;PMS_P1;PMS_P2;Temp;Humidity;BMP_temperature;BMP_pressure;BME280_temperature;BME280_humidity;BME280_pressure;Samples;Min_cycle;Max_cycle;Signal;HPM_P1;HPM_P2
2023/12/18 00:01:24;;;;;;;;;;;102.60;2227.20;;;;;;5075916;28;19908;-73
2023/12/18 00:03:50;;;;;;;;;;;102.60;2227.20;;;;;;5078765;28;20419;-74
2023/12/18 00:06:15;;;;;;;;;;;102.50;2227.20;;;;;;5085846;28;19912;-74
2023/12/18 00:08:41;;;;;;;;;;;102.40;2227.20;;;;;;5074884;28;19952;-75
2023/12/18 00:11:06;;;;;;;;;;;102.40;2227.20;;;;;;5075549;28;19905;-75
2023/12/18 00:13:32;;;;;;;;;;;102.40;2227.20;;;;;;5090754;28;19908;-75
2023/12/18 00:15:58;;;;;;;;;;;102.40;2227.20;;;;;;5075544;28;20264;-74
2023/12/18 00:18:23;;;;;;;;;;;102.50;2227.20;;;;;;5075365;28;19908;-74
2023/12/18 00:20:50;;;;;;;;;;;102.70;2227.20;;;;;;5074164;28;19905;-74
2023/12/18 00:23:16;;;;;;;;;;;102.80;2227.20;;;;;;5075116;28;19908;-74
2023/12/18 00:25:43;;;;;;;;;;;102.80;2227.20;;;;;;5075199;28;19912;-75
2023/12/18 00:28:08;;;;;;;;;;;102.90;2227.20;;;;;;5073920;28;19913;-74
2023/12/18 00:30:34;;;;;;;;;;;102.90;2227.20;;;;;;5078709;28;19911;-74
2023/12/18 00:33:00;;;;;;;;;;;102.80;2227.20;;;;;;5071971;28;19910;-74
2023/12/18 00:35:26;;;;;;;;;;;102.70;2227.20;;;;;;5076173;28;19947;-74
2023/12/18 00:37:51;;;;;;;;;;;102.60;2227.20;;;;;;5073614;28;19987;-76
2023/12/18 00:40:17;;;;;;;;;;;102.80;2227.20;;;;;;5074911;28;19949;-74
2023/12/18 00:42:42;;;;;;;;;;;102.70;2227.20;;;;;;5074871;28;19919;-74
2023/12/18 00:45:08;;;;;;;;;;;102.60;2227.20;;;;;;5074079;28;19904;-75
2023/12/18 00:47:33;;;;;;;;;;;102.60;2227.20;;;;;;5074618;28;19932;-75
2023/12/18 00:49:59;;;;;;;;;;;102.50;2227.20;;;;;;5074847;28;19911;-74
2023/12/18 00:52:25;;;;;;;;;;;102.60;2227.20;;;;;;5074438;28;20085;-74
2023/12/18 00:54:50;;;;;;;;;;;102.60;2227.20;;;;;;5074586;28;19954;-75
2023/12/18 00:57:16;;;;;;;;;;;102.50;2227.20;;;;;;5074604;28;19927;-74
2023/12/18 00:59:41;;;;;;;;;;;102.60;2227.20;;;;;;5074491;28;19904;-72
2023/12/18 01:02:07;;;;;;;;;;;102.80;2227.20;;;;;;5074103;28;19904;-73
2023/12/18 01:04:32;;;;;;;;;;;103.00;2227.20;;;;;;5074382;28;19908;-73
2023/12/18 01:06:58;;;;;;;;;;;103.00;2227.20;;;;;;5074193;28;19915;-74
2023/12/18 01:09:24;;;;;;;;;;;103.10;2227.20;;;;;;5074363;28;20281;-74
2023/12/18 01:11:50;;;;;;;;;;;103.10;2227.20;;;;;;5074040;28;19940;-74
2023/12/18 01:14:15;;;;;;;;;;;103.00;2227.20;;;;;;5074346;28;19962;-75
2023/12/18 01:16:42;;;;;;;;;;;102.90;2227.20;;;;;;5074029;28;19904;-74
2023/12/18 01:19:07;;;;;;;;;;;102.80;2227.20;;;;;;5081752;28;19947;-74
2023/12/18 01:21:34;;;;;;;;;;;102.70;2227.20;;;;;;5078534;28;19904;-74
2023/12/18 01:23:59;;;;;;;;;;;102.70;2227.20;;;;;;5073887;28;19958;-74
2023/12/18 01:26:25;;;;;;;;;;;102.80;2227.20;;;;;;5073671;28;19908;-75
2023/12/18 01:28:50;;;;;;;;;;;102.70;2227.20;;;;;;5072756;28;20373;-75
2023/12/18 01:31:22;;;;;;;;;;;102.80;2227.20;;;;;;5073622;28;19912;-75
2023/12/18 01:33:48;;;;;;;;;;;102.60;2227.20;;;;;;5073838;28;19999;-75
2023/12/18 01:36:14;;;;;;;;;;;102.50;2227.20;;;;;;5073599;28;20373;-74
2023/12/18 01:38:39;;;;;;;;;;;102.40;2227.20;;;;;;5074047;28;19926;-73
2023/12/18 01:41:05;;;;;;;;;;;102.40;2227.20;;;;;;5072394;28;20411;-74
2023/12/18 01:43:30;;;;;;;;;;;102.40;2227.20;;;;;;5074008;28;19904;-74
2023/12/18 01:45:59;;;;;;;;;;;77.70;2227.20;;;;;;5073667;28;19959;-74
2023/12/18 01:48:26;;;;;;;;;;;77.60;2227.20;;;;;;5073846;28;19982;-74
2023/12/18 01:50:55;;;;;;;;;;;77.50;2227.20;;;;;;5073450;28;20330;-74
2023/12/18 01:53:22;;;;;;;;;;;77.50;2227.20;;;;;;5072310;28;19946;-74
2023/12/18 01:55:48;;;;;;;;;;;77.50;2227.20;;;;;;5073426;28;19967;-73
2023/12/18 01:58:13;;;;;;;;;;;77.50;2227.20;;;;;;5072845;28;19908;-73
2023/12/18 02:00:40;;;;;;;;;;;77.60;2227.20;;;;;;5073326;28;20356;-74
2023/12/18 02:03:06;;;;;;;;;;;77.60;2227.20;;;;;;5073593;28;19913;-74
2023/12/18 02:05:32;;;;;;;;;;;77.60;2227.20;;;;;;5073416;28;19951;-74
2023/12/18 02:07:57;;;;;;;;;;;77.70;2227.20;;;;;;5073414;28;19956;-73
2023/12/18 02:10:23;;;;;;;;;;;77.60;2227.20;;;;;;5073459;28;19904;-73
2023/12/18 02:12:49;;;;;;;;;;;77.50;2227.20;;;;;;5073431;28;19911;-74
2023/12/18 02:15:15;;;;;;;;;;;77.60;2227.20;;;;;;5073329;28;19904;-73
2023/12/18 02:17:40;;;;;;;;;;;102.40;2227.20;;;;;;5073423;28;20369;-72
2023/12/18 02:20:07;;;;;;;;;;;102.60;2227.20;;;;;;5073350;28;19911;-72
2023/12/18 02:22:42;;;;;;;;;;;102.60;2227.20;;;;;;5073552;28;20011;-73
2023/12/18 02:25:08;;;;;;;;;;;102.70;2227.20;;;;;;5073143;28;20002;-73
2023/12/18 02:27:34;;;;;;;;;;;102.50;2227.20;;;;;;5073425;28;19912;-73
2023/12/18 02:29:59;;;;;;;;;;;102.50;2227.20;;;;;;5073241;28;19963;-73
2023/12/18 02:32:25;;;;;;;;;;;77.70;2227.20;;;;;;5073118;28;19962;-74
2023/12/18 02:34:50;;;;;;;;;;;77.70;2227.20;;;;;;5073090;28;20000;-74
2023/12/18 02:37:16;;;;;;;;;;;77.60;2227.20;;;;;;5073370;28;19912;-74
2023/12/18 02:39:42;;;;;;;;;;;77.40;2227.20;;;;;;5071722;28;19991;-74
2023/12/18 02:42:07;;;;;;;;;;;77.50;2227.20;;;;;;5073290;28;19905;-74
2023/12/18 02:44:33;;;;;;;;;;;77.50;2227.20;;;;;;5072892;28;19998;-74
2023/12/18 02:46:58;;;;;;;;;;;77.50;2227.20;;;;;;5071773;28;19927;-73
2023/12/18 02:49:24;;;;;;;;;;;77.70;2227.20;;;;;;5073037;28;19909;-74
2023/12/18 02:51:51;;;;;;;;;;;102.40;2227.20;;;;;;5073144;28;20273;-74
2023/12/18 02:54:17;;;;;;;;;;;102.50;2227.20;;;;;;5071434;28;20335;-75
2023/12/18 02:56:42;;;;;;;;;;;102.60;2227.20;;;;;;5071949;28;19929;-74
2023/12/18 02:59:08;;;;;;;;;;;102.70;2227.20;;;;;;5072995;28;19905;-72
2023/12/18 03:01:35;;;;;;;;;;;102.60;2227.20;;;;;;5073136;28;20304;-73
2023/12/18 03:04:01;;;;;;;;;;;102.60;2227.20;;;;;;5072801;28;19912;-74
2023/12/18 03:06:26;;;;;;;;;;;102.70;2227.20;;;;;;5073068;28;20262;-75
2023/12/18 03:08:52;;;;;;;;;;;102.70;2227.20;;;;;;5069224;28;20003;-74
2023/12/18 03:11:17;;;;;;;;;;;102.50;2227.20;;;;;;5075479;28;19905;-74
2023/12/18 03:13:43;;;;;;;;;;;102.50;2227.20;;;;;;5076358;28;20288;-74
2023/12/18 03:16:09;;;;;;;;;;;102.50;2227.20;;;;;;5075293;28;19904;-74
2023/12/18 03:18:35;;;;;;;;;;;102.50;2227.20;;;;;;5076248;28;19905;-75
2023/12/18 03:21:01;;;;;;;;;;;102.40;2227.20;;;;;;5076407;28;20258;-75
2023/12/18 03:23:26;;;;;;;;;;;102.50;2227.20;;;;;;5075015;28;20399;-75
2023/12/18 03:25:52;;;;;;;;;;;102.50;2227.20;;;;;;5074890;28;20341;-74
2023/12/18 03:28:18;;;;;;;;;;;102.50;2227.20;;;;;;5076231;28;19923;-75
2023/12/18 03:30:44;;;;;;;;;;;77.70;2227.20;;;;;;5091880;28;19932;-74
2023/12/18 03:33:10;;;;;;;;;;;77.40;2227.20;;;;;;5074453;28;19916;-74
2023/12/18 03:35:35;;;;;;;;;;;77.30;2227.20;;;;;;5075461;28;19912;-75
2023/12/18 03:38:01;;;;;;;;;;;77.30;2227.20;;;;;;5076136;28;20272;-74
2023/12/18 03:40:27;;;;;;;;;;;77.20;2227.20;;;;;;5074776;28;19905;-75
2023/12/18 03:42:52;;;;;;;;;;;77.30;2227.20;;;;;;5076027;28;19904;-74
2023/12/18 03:45:18;;;;;;;;;;;77.40;2227.20;;;;;;5076713;28;20357;-74
2023/12/18 03:47:43;;;;;;;;;;;77.60;2227.20;;;;;;5078563;28;19913;-73
2023/12/18 03:50:10;;;;;;;;;;;77.50;2227.20;;;;;;5079169;28;19905;-73
2023/12/18 03:52:35;;;;;;;;;;;77.50;2227.20;;;;;;5075897;28;19908;-74
2023/12/18 03:55:01;;;;;;;;;;;77.40;2227.20;;;;;;5075852;28;19904;-74
2023/12/18 03:57:27;;;;;;;;;;;77.50;2227.20;;;;;;5075243;28;19908;-75
2023/12/18 03:59:52;;;;;;;;;;;77.40;2227.20;;;;;;5075327;28;19958;-75
2023/12/18 04:02:18;;;;;;;;;;;77.40;2227.20;;;;;;5075489;28;19904;-75
2023/12/18 04:04:44;;;;;;;;;;;77.40;2227.20;;;;;;5075106;28;19909;-74
2023/12/18 04:07:10;;;;;;;;;;;77.20;2227.20;;;;;;5074029;28;19920;-75
2023/12/18 04:09:37;;;;;;;;;;;77.10;2227.20;;;;;;5075215;28;19915;-75
2023/12/18 04:12:03;;;;;;;;;;;77.20;2227.20;;;;;;5075643;28;19904;-75
2023/12/18 04:14:29;;;;;;;;;;;77.30;2227.20;;;;;;5075305;28;20434;-75
2023/12/18 04:16:54;;;;;;;;;;;77.40;2227.20;;;;;;5075530;28;20327;-75
2023/12/18 04:19:20;;;;;;;;;;;77.20;2227.20;;;;;;5075069;28;19948;-74
2023/12/18 04:21:45;;;;;;;;;;;77.40;2227.20;;;;;;5074575;28;20399;-74
2023/12/18 04:24:11;;;;;;;;;;;77.60;2227.20;;;;;;5075042;28;19904;-75
2023/12/18 04:26:37;;;;;;;;;;;77.60;2227.20;;;;;;5075083;28;20369;-74
2023/12/18 04:29:02;;;;;;;;;;;77.40;2227.20;;;;;;5075186;28;19908;-75
2023/12/18 04:31:28;;;;;;;;;;;77.40;2227.20;;;;;;5075230;28;19954;-75
2023/12/18 04:33:54;;;;;;;;;;;77.30;2227.20;;;;;;5090339;28;19981;-75
2023/12/18 04:36:19;;;;;;;;;;;77.30;2227.20;;;;;;5075041;28;19908;-74
2023/12/18 04:38:46;;;;;;;;;;;77.30;2227.20;;;;;;5074900;28;19926;-75
2023/12/18 04:41:21;;;;;;;;;;;77.50;2227.20;;;;;;5074731;28;19989;-75
2023/12/18 04:43:47;;;;;;;;;;;77.50;2227.20;;;;;;5074905;28;19904;-74
2023/12/18 04:46:13;;;;;;;;;;;77.30;2227.20;;;;;;5089875;28;19911;-75
2023/12/18 04:48:39;;;;;;;;;;;77.20;2227.20;;;;;;5074662;28;20280;-75
2023/12/18 04:51:05;;;;;;;;;;;77.10;2227.20;;;;;;5074402;28;19998;-75
2023/12/18 04:53:32;;;;;;;;;;;77.00;2227.20;;;;;;5074829;28;20334;-75
2023/12/18 04:55:57;;;;;;;;;;;76.90;2227.20;;;;;;5074307;28;19904;-75
2023/12/18 04:58:23;;;;;;;;;;;76.80;2227.20;;;;;;5086133;28;20007;-75
2023/12/18 05:00:48;;;;;;;;;;;76.90;2227.20;;;;;;5076358;28;19904;-75
2023/12/18 05:03:14;;;;;;;;;;;76.90;2227.20;;;;;;5073181;28;19909;-75
2023/12/18 05:05:40;;;;;;;;;;;76.80;2227.20;;;;;;5074310;28;19931;-75
2023/12/18 05:08:06;;;;;;;;;;;76.90;2227.20;;;;;;5074259;28;20285;-75
2023/12/18 05:10:31;;;;;;;;;;;76.90;2227.20;;;;;;5074178;28;19912;-76
2023/12/18 05:12:57;;;;;;;;;;;76.90;2227.20;;;;;;5074333;28;19904;-75
2023/12/18 05:15:23;;;;;;;;;;;76.80;2227.20;;;;;;5074129;28;19908;-75
2023/12/18 05:17:49;;;;;;;;;;;52.10;2227.20;;;;;;5073017;28;19904;-75
2023/12/18 05:20:15;;;;;;;;;;;76.80;2227.20;;;;;;5072754;28;20268;-74
2023/12/18 05:22:40;;;;;;;;;;;76.80;2227.20;;;;;;5074124;28;19908;-75
2023/12/18 05:25:08;;;;;;;;;;;52.10;2227.20;;;;;;5072896;28;19908;-75
2023/12/18 05:27:33;;;;;;;;;;;52.10;2227.20;;;;;;5073957;28;19912;-75
2023/12/18 05:29:59;;;;;;;;;;;76.80;2227.20;;;;;;5073066;28;19904;-75
2023/12/18 05:32:24;;;;;;;;;;;52.10;2227.20;;;;;;5073874;28;19916;-74
2023/12/18 05:34:50;;;;;;;;;;;52.10;2227.20;;;;;;5073788;28;19944;-75
2023/12/18 05:37:16;;;;;;;;;;;52.10;2227.20;;;;;;5073858;28;19908;-75
2023/12/18 05:39:41;;;;;;;;;;;76.90;2227.20;;;;;;5072761;28;19912;-75
2023/12/18 05:42:07;;;;;;;;;;;76.80;2227.20;;;;;;5073552;28;19904;-75
2023/12/18 05:44:32;;;;;;;;;;;52.00;2227.20;;;;;;5073539;28;19927;-75
2023/12/18 05:46:58;;;;;;;;;;;52.00;2227.20;;;;;;5073733;28;20380;-75
2023/12/18 05:49:23;;;;;;;;;;;52.00;2227.20;;;;;;5073532;28;19965;-75
2023/12/18 05:51:49;;;;;;;;;;;52.10;2227.20;;;;;;5072945;28;19908;-76
2023/12/18 05:54:15;;;;;;;;;;;76.90;2227.20;;;;;;5073671;28;20384;-75
2023/12/18 05:56:40;;;;;;;;;;;77.00;2227.20;;;;;;5072021;28;19912;-75
2023/12/18 05:59:06;;;;;;;;;;;77.10;2227.20;;;;;;5072184;28;20262;-74
2023/12/18 06:01:32;;;;;;;;;;;77.00;2227.20;;;;;;5068241;28;19916;-75
2023/12/18 06:03:57;;;;;;;;;;;76.90;2227.20;;;;;;5071262;28;19930;-75
2023/12/18 06:06:23;;;;;;;;;;;76.90;2227.20;;;;;;5071805;28;19912;-74
2023/12/18 06:08:48;;;;;;;;;;;77.00;2227.20;;;;;;5079558;28;19971;-75
2023/12/18 06:11:15;;;;;;;;;;;76.90;2227.20;;;;;;5074339;28;19908;-75
2023/12/18 06:13:41;;;;;;;;;;;76.90;2227.20;;;;;;5088671;28;19904;-75
2023/12/18 06:16:06;;;;;;;;;;;77.10;2227.20;;;;;;5076187;28;19908;-75
2023/12/18 06:18:32;;;;;;;;;;;77.10;2227.20;;;;;;5067915;28;19908;-77
2023/12/18 06:21:01;;;;;;;;;;;77.10;2227.20;;;;;;5092514;28;19999;-75
2023/12/18 06:23:28;;;;;;;;;;;77.10;2227.20;;;;;;5079048;28;20073;-76
2023/12/18 06:25:53;;;;;;;;;;;76.90;2227.20;;;;;;5066566;28;20365;-80
2023/12/18 06:28:19;;;;;;;;;;;76.80;2227.20;;;;;;5072309;28;19920;-77
2023/12/18 06:30:45;;;;;;;;;;;76.80;2227.20;;;;;;5068759;28;19934;-77
2023/12/18 06:33:10;;;;;;;;;;;52.10;2227.20;;;;;;5066556;28;19908;-75
2023/12/18 06:35:36;;;;;;;;;;;52.00;2227.20;;;;;;5077957;28;19964;-76
2023/12/18 06:38:01;;;;;;;;;;;76.80;2227.20;;;;;;5070027;28;20308;-76
2023/12/18 06:40:27;;;;;;;;;;;76.90;2227.20;;;;;;5074278;28;19951;-76
2023/12/18 06:42:53;;;;;;;;;;;76.80;2227.20;;;;;;5066519;28;19908;-75
2023/12/18 06:45:18;;;;;;;;;;;76.90;2227.20;;;;;;5066998;28;19908;-74
2023/12/18 06:47:44;;;;;;;;;;;76.90;2227.20;;;;;;5080317;28;19919;-73
2023/12/18 06:50:09;;;;;;;;;;;76.80;2227.20;;;;;;5082362;28;19912;-76
2023/12/18 06:52:35;;;;;;;;;;;77.00;2227.20;;;;;;5091414;28;19916;-75
2023/12/18 06:55:01;;;;;;;;;;;77.00;2227.20;;;;;;5069821;28;20272;-75
2023/12/18 06:57:26;;;;;;;;;;;77.00;2227.20;;;;;;5079147;28;19917;-76
2023/12/18 06:59:52;;;;;;;;;;;77.10;2227.20;;;;;;5086801;28;19904;-76
2023/12/18 07:02:17;;;;;;;;;;;77.00;2227.20;;;;;;5090256;28;20320;-75
2023/12/18 07:04:43;;;;;;;;;;;76.90;2227.20;;;;;;5074203;28;19916;-76
2023/12/18 07:07:09;;;;;;;;;;;76.90;2227.20;;;;;;5072611;28;19968;-78
2023/12/18 07:09:34;;;;;;;;;;;76.90;2227.20;;;;;;5093939;28;20045;-77
2023/12/18 07:12:00;;;;;;;;;;;52.10;2227.20;;;;;;5077259;28;20331;-77
2023/12/18 07:14:25;;;;;;;;;;;52.10;2227.20;;;;;;5083257;28;19970;-77
2023/12/18 07:16:53;;;;;;;;;;;77.20;2227.20;;;;;;5086248;28;20276;-76
2023/12/18 07:19:18;;;;;;;;;;;52.10;2227.20;;;;;;5069562;28;19908;-76
2023/12/18 07:21:44;;;;;;;;;;;76.90;2227.20;;;;;;5087321;28;19908;-77
2023/12/18 07:24:10;;;;;;;;;;;77.00;2227.20;;;;;;5069084;28;19954;-76
2023/12/18 07:26:35;;;;;;;;;;;77.00;2227.20;;;;;;5085166;28;19952;-78
2023/12/18 07:29:01;;;;;;;;;;;77.10;2227.20;;;;;;5067410;28;19912;-76
2023/12/18 07:31:26;;;;;;;;;;;77.10;2227.20;;;;;;5080511;28;19915;-77
2023/12/18 07:33:52;;;;;;;;;;;77.10;2227.20;;;;;;5087686;28;19923;-78
2023/12/18 07:36:18;;;;;;;;;;;77.20;2227.20;;;;;;5094500;28;19912;-77
2023/12/18 07:38:45;;;;;;;;;;;77.40;2227.20;;;;;;5070661;28;20002;-77
2023/12/18 07:41:11;;;;;;;;;;;77.30;2227.20;;;;;;5074964;28;19961;-76
2023/12/18 07:43:37;;;;;;;;;;;77.40;2227.20;;;;;;5080883;28;19908;-77
2023/12/18 07:46:03;;;;;;;;;;;77.70;2227.20;;;;;;5064012;28;19999;-77
2023/12/18 07:48:31;;;;;;;;;;;102.50;2227.20;;;;;;5076662;28;19947;-77
2023/12/18 07:50:57;;;;;;;;;;;102.70;2227.20;;;;;;5079168;28;19967;-76
2023/12/18 07:53:22;;;;;;;;;;;102.60;2227.20;;;;;;5077301;28;19952;-77
2023/12/18 07:55:48;;;;;;;;;;;102.70;2227.20;;;;;;5064957;28;20285;-79
2023/12/18 07:58:14;;;;;;;;;;;102.70;2227.20;;;;;;5070185;28;19905;-77
2023/12/18 08:00:40;;;;;;;;;;;102.80;2227.20;;;;;;5071044;28;20416;-79
2023/12/18 08:03:05;;;;;;;;;;;102.60;2227.20;;;;;;5083669;28;19909;-78
2023/12/18 08:05:31;;;;;;;;;;;102.70;2227.20;;;;;;5072346;28;19919;-79
2023/12/18 08:07:57;;;;;;;;;;;102.70;2227.20;;;;;;5082994;28;19916;-78
2023/12/18 08:10:22;;;;;;;;;;;102.80;2227.20;;;;;;5076043;28;19916;-79
2023/12/18 08:12:48;;;;;;;;;;;102.70;2227.20;;;;;;5086026;28;19927;-78
2023/12/18 08:15:14;;;;;;;;;;;102.60;2227.20;;;;;;5073122;28;19904;-79
2023/12/18 08:17:39;;;;;;;;;;;102.80;2227.20;;;;;;5091807;28;19909;-78
2023/12/18 08:20:09;;;;;;;;;;;102.80;2227.20;;;;;;5082044;28;20353;-79
2023/12/18 08:22:35;;;;;;;;;;;102.90;2227.20;;;;;;5065295;28;19904;-78
2023/12/18 08:25:01;;;;;;;;;;;103.00;2227.20;;;;;;5092220;28;19995;-79
2023/12/18 08:27:28;;;;;;;;;;;102.90;2227.20;;;;;;5084814;28;19916;-78
2023/12/18 08:29:54;;;;;;;;;;;102.80;2227.20;;;;;;5069386;28;19957;-78
2023/12/18 08:32:20;;;;;;;;;;;103.10;2227.20;;;;;;5081429;28;20327;-78
2023/12/18 08:34:48;;;;;;;;;;;103.10;2227.20;;;;;;5062132;28;20459;-77
2023/12/18 08:37:14;;;;;;;;;;;103.10;2227.20;;;;;;5082419;28;19915;-78
2023/12/18 08:39:40;;;;;;;;;;;103.10;2227.20;;;;;;5064137;28;19916;-78
2023/12/18 08:42:05;;;;;;;;;;;103.20;2227.20;;;;;;5071604;28;19908;-81
2023/12/18 08:44:31;;;;;;;;;;;128.00;2252.80;;;;;;5074635;28;20373;-80
2023/12/18 08:46:58;;;;;;;;;;;128.20;2252.80;;;;;;5085234;28;20373;-77
2023/12/18 08:49:23;;;;;;;;;;;128.30;2252.80;;;;;;5064948;28;19916;-77
2023/12/18 08:51:49;;;;;;;;;;;128.20;2252.80;;;;;;5072035;28;20248;-78
2023/12/18 08:54:15;;;;;;;;;;;128.10;2252.80;;;;;;5073834;28;19916;-77
2023/12/18 08:56:40;;;;;;;;;;;128.30;2252.80;;;;;;5071689;28;19913;-78
2023/12/18 08:59:06;;;;;;;;;;;128.40;2252.80;;;;;;5078606;28;19920;-78
2023/12/18 09:01:35;;;;;;;;;;;128.50;2252.80;;;;;;5082223;28;19908;-77
2023/12/18 09:04:01;;;;;;;;;;;128.50;2252.80;;;;;;5072761;28;19908;-78
2023/12/18 09:06:26;;;;;;;;;;;128.60;2252.80;;;;;;5072402;28;19919;-79
2023/12/18 09:08:52;;;;;;;;;;;128.60;2252.80;;;;;;5068331;28;20388;-79
2023/12/18 09:11:18;;;;;;;;;;;128.90;2252.80;;;;;;5069665;28;20327;-80
2023/12/18 09:13:43;;;;;;;;;;;128.70;2252.80;;;;;;5075133;28;19912;-79
2023/12/18 09:16:09;;;;;;;;;;;128.80;2252.80;;;;;;5079765;28;20432;-80
2023/12/18 09:18:34;;;;;;;;;;;128.60;2252.80;;;;;;5063332;28;20011;-80
2023/12/18 09:21:00;;;;;;;;;;;128.70;2252.80;;;;;;5078761;28;19908;-79
2023/12/18 09:23:26;;;;;;;;;;;128.70;2252.80;;;;;;5068380;28;19935;-78
2023/12/18 09:25:52;;;;;;;;;;;128.80;2252.80;;;;;;5090901;28;19958;-81
2023/12/18 09:28:17;;;;;;;;;;;153.70;2252.80;;;;;;5077324;28;19916;-80
2023/12/18 09:30:44;;;;;;;;;;;153.70;2252.80;;;;;;5092352;28;19961;-79
2023/12/18 09:33:10;;;;;;;;;;;153.80;2252.80;;;;;;5079402;28;20374;-79
2023/12/18 09:35:35;;;;;;;;;;;154.10;2252.80;;;;;;5080094;28;19998;-80
2023/12/18 09:38:02;;;;;;;;;;;154.20;2252.80;;;;;;5084425;28;20288;-80
2023/12/18 09:40:27;;;;;;;;;;;154.10;2252.80;;;;;;5079835;28;19987;-79
2023/12/18 09:42:53;;;;;;;;;;;154.40;2252.80;;;;;;5088658;28;20349;-79
2023/12/18 09:45:23;;;;;;;;;;;154.20;2252.80;;;;;;5066775;28;19994;-76
2023/12/18 09:47:50;;;;;;;;;;;154.50;2252.80;;;;;;5064401;28;20297;-77
2023/12/18 09:50:16;;;;;;;;;;;179.30;2252.80;;;;;;5082374;28;20274;-78
2023/12/18 09:52:45;;;;;;;;;;;179.40;2252.80;;;;;;5086950;28;19911;-76
2023/12/18 09:55:11;;;;;;;;;;;179.80;2252.80;;;;;;5063091;28;19919;-76
2023/12/18 09:57:37;;;;;;;;;;;204.80;2252.80;;;;;;5080007;28;20316;-78
2023/12/18 10:00:03;;;;;;;;;;;205.00;2252.80;;;;;;5078873;28;19947;-79
2023/12/18 10:02:29;;;;;;;;;;;205.70;2252.80;;;;;;5081491;28;20379;-77
2023/12/18 10:04:55;;;;;;;;;;;205.60;2252.80;;;;;;5076359;28;19920;-77
2023/12/18 10:07:21;;;;;;;;;;;230.60;2252.80;;;;;;5071282;28;19935;-76
2023/12/18 10:09:48;;;;;;;;;;;230.60;2252.80;;;;;;5069439;28;19958;-77
2023/12/18 10:12:13;;;;;;;;;;;230.70;2252.80;;;;;;5082241;28;19908;-77
2023/12/18 10:14:39;;;;;;;;;;;230.90;2252.80;;;;;;5080407;28;20356;-76
2023/12/18 10:17:05;;;;;;;;;;;231.00;2252.80;;;;;;5087589;28;19904;-77
2023/12/18 10:19:31;;;;;;;;;;;231.30;2252.80;;;;;;5081263;28;19935;-77
2023/12/18 10:21:57;;;;;;;;;;;;;;;;;;5074651;28;20411;-75
2023/12/18 10:24:23;;;;;;;;;;;256.00;2252.80;;;;;;5072710;28;19909;-77
2023/12/18 10:26:48;;;;;;;;;;;256.40;2252.80;;;;;;5083757;28;19995;-77
2023/12/18 10:29:17;;;;;;;;;;;256.70;2252.80;;;;;;5067080;28;19966;-79
2023/12/18 10:31:44;;;;;;;;;;;281.70;2278.40;;;;;;5072539;28;19924;-78
2023/12/18 10:34:10;;;;;;;;;;;281.60;2278.40;;;;;;5076294;28;19920;-78
2023/12/18 10:36:37;;;;;;;;;;;256.80;2252.80;;;;;;5079236;28;19944;-77
2023/12/18 10:39:05;;;;;;;;;;;256.90;2252.80;;;;;;5079287;28;19911;-77
2023/12/18 10:41:34;;;;;;;;;;;281.90;2278.40;;;;;;5068765;28;19909;-76
2023/12/18 10:43:59;;;;;;;;;;;282.20;2278.40;;;;;;5061728;28;19908;-77
2023/12/18 10:46:26;;;;;;;;;;;307.20;2304.00;;;;;;5078383;28;19962;-78
2023/12/18 10:48:52;;;;;;;;;;;282.40;2278.40;;;;;;5065428;28;19956;-77
2023/12/18 10:51:20;;;;;;;;;;;282.30;2278.40;;;;;;5077248;28;19955;-77
2023/12/18 10:53:49;;;;;;;;;;;282.00;2278.40;;;;;;5073096;28;19973;-77
2023/12/18 10:56:18;;;;;;;;;;;282.50;2278.40;;;;;;5081077;28;19908;-78
2023/12/18 10:58:44;;;;;;;;;;;307.30;2304.00;;;;;;5083671;28;19908;-77
2023/12/18 11:01:13;;;;;;;;;;;282.50;2278.40;;;;;;5078300;28;20312;-77
2023/12/18 11:03:39;;;;;;;;;;;;;;;;;;5078597;28;19908;-77
2023/12/18 11:06:06;;;;;;;;;;;307.50;2278.40;;;;;;5079465;28;19919;-77
2023/12/18 11:08:32;;;;;;;;;;;307.30;2278.40;;;;;;5076320;28;19916;-77
2023/12/18 11:10:59;;;;;;;;;;;282.50;2227.20;;;;;;5079181;28;19909;-77
2023/12/18 11:13:26;;;;;;;;;;;307.40;2252.80;;;;;;5073260;28;20304;-78
2023/12/18 11:16:10;;;;;;;;;;;307.30;2278.40;;;;;;5079064;28;19908;-74
2023/12/18 11:19:05;;;;;;;;;;;307.30;2304.00;;;;;;5076100;28;19915;-74
2023/12/18 11:21:33;;;;;;;;;;;307.30;2304.00;;;;;;5028466;28;19964;-74
2023/12/18 11:23:58;;;;;;;;;;;307.50;2252.80;;;;;;5023312;28;19963;-74
2023/12/18 11:26:26;;;;;;;;;;;307.30;2278.40;;;;;;5024146;28;19913;-74
2023/12/18 11:28:55;;;;;;;;;;;282.50;2278.40;;;;;;5027158;28;19917;-74
2023/12/18 11:31:21;;;;;;;;;;;282.50;2278.40;;;;;;5024683;28;19913;-76
2023/12/18 11:34:03;;;;;;;;;;;282.50;2278.40;;;;;;5030282;28;19925;-74
2023/12/18 11:36:29;;;;;;;;;;;307.20;2304.00;;;;;;5027486;28;19913;-75
2023/12/18 11:38:57;;;;;;;;;;;282.40;2278.40;;;;;;5019295;28;19909;-75
2023/12/18 11:41:44;;;;;;;;;;;282.30;2278.40;;;;;;5024854;28;19991;-75
2023/12/18 11:44:12;;;;;;;;;;;282.50;2278.40;;;;;;5027434;28;19909;-74
2023/12/18 11:46:38;;;;;;;;;;;282.30;2278.40;;;;;;5010114;28;19928;-74
2023/12/18 11:49:07;;;;;;;;;;;282.20;2278.40;;;;;;5028461;28;20290;-75
2023/12/18 11:51:42;;;;;;;;;;;282.30;2278.40;;;;;;5028327;28;19916;-75
2023/12/18 11:54:08;;;;;;;;;;;282.10;2278.40;;;;;;4990457;28;19906;-74
2023/12/18 11:56:40;;;;;;;;;;;281.90;2278.40;;;;;;5022985;28;19935;-74
2023/12/18 11:59:06;;;;;;;;;;;282.00;2278.40;;;;;;5070943;28;19993;-74
2023/12/18 12:01:32;;;;;;;;;;;282.00;2278.40;;;;;;5074725;28;20000;-75
2023/12/18 12:03:58;;;;;;;;;;;282.00;2278.40;;;;;;5076250;28;19948;-75
2023/12/18 12:06:24;;;;;;;;;;;256.40;2252.80;;;;;;5073673;28;19969;-75
2023/12/18 12:08:50;;;;;;;;;;;281.70;2278.40;;;;;;5076130;28;19923;-75
2023/12/18 12:11:17;;;;;;;;;;;281.80;2278.40;;;;;;5068886;28;19914;-74
2023/12/18 12:13:42;;;;;;;;;;;281.70;2278.40;;;;;;5072192;28;19984;-74
2023/12/18 12:16:08;;;;;;;;;;;256.80;2252.80;;;;;;5088015;28;19931;-74
2023/12/18 12:18:35;;;;;;;;;;;256.90;2252.80;;;;;;5059062;28;19962;-75
2023/12/18 12:21:00;;;;;;;;;;;256.90;2252.80;;;;;;5067711;28;19908;-74
2023/12/18 12:23:27;;;;;;;;;;;256.90;2252.80;;;;;;5076562;28;19920;-75
2023/12/18 12:25:55;;;;;;;;;;;256.90;2252.80;;;;;;5068630;28;19923;-74
2023/12/18 12:28:21;;;;;;;;;;;256.90;2252.80;;;;;;5072300;28;19912;-73
2023/12/18 12:30:46;;;;;;;;;;;256.70;2252.80;;;;;;5083309;28;19928;-74
2023/12/18 12:33:12;;;;;;;;;;;256.60;2252.80;;;;;;5076223;28;19912;-74
2023/12/18 12:35:38;;;;;;;;;;;256.40;2252.80;;;;;;5065920;28;20396;-73
2023/12/18 12:38:05;;;;;;;;;;;256.50;2252.80;;;;;;5068922;28;19995;-76
2023/12/18 12:40:40;;;;;;;;;;;256.40;2252.80;;;;;;5064684;28;19995;-75
2023/12/18 12:43:10;;;;;;;;;;;256.30;2252.80;;;;;;5073681;28;19908;-76
2023/12/18 12:45:40;;;;;;;;;;;256.50;2252.80;;;;;;5061141;28;19908;-75
2023/12/18 12:48:07;;;;;;;;;;;256.50;2252.80;;;;;;5073698;28;19917;-76
2023/12/18 12:50:39;;;;;;;;;;;256.50;2252.80;;;;;;5073852;28;19955;-77
2023/12/18 12:53:09;;;;;;;;;;;256.40;2252.80;;;;;;5069212;28;19936;-76
2023/12/18 12:55:44;;;;;;;;;;;256.30;2252.80;;;;;;5073382;28;19942;-76
2023/12/18 12:58:10;;;;;;;;;;;256.20;2252.80;;;;;;5063335;28;20424;-76
2023/12/18 13:00:36;;;;;;;;;;;256.30;2252.80;;;;;;5081227;28;20003;-77
2023/12/18 13:03:02;;;;;;;;;;;281.60;2278.40;;;;;;5073708;28;19915;-75
2023/12/18 13:05:28;;;;;;;;;;;256.30;2252.80;;;;;;5065233;28;19963;-77
2023/12/18 13:07:55;;;;;;;;;;;256.40;2252.80;;;;;;5085728;28;20368;-76
2023/12/18 13:10:25;;;;;;;;;;;256.50;2252.80;;;;;;5061622;28;19954;-77
2023/12/18 13:12:51;;;;;;;;;;;256.40;2252.80;;;;;;5072521;28;19905;-77
2023/12/18 13:15:17;;;;;;;;;;;256.40;2252.80;;;;;;5083257;28;19924;-77
2023/12/18 13:17:43;;;;;;;;;;;256.30;2252.80;;;;;;5062294;28;19908;-76
2023/12/18 13:20:09;;;;;;;;;;;256.50;2252.80;;;;;;5062317;28;19935;-76
2023/12/18 13:22:34;;;;;;;;;;;256.50;2252.80;;;;;;5076673;28;20361;-75
2023/12/18 13:25:00;;;;;;;;;;;256.40;2252.80;;;;;;5081961;28;19911;-76
2023/12/18 13:27:26;;;;;;;;;;;256.30;2252.80;;;;;;5070302;28;19978;-77
2023/12/18 13:29:52;;;;;;;;;;;256.20;2252.80;;;;;;5071905;28;19915;-77
2023/12/18 13:32:20;;;;;;;;;;;256.10;2252.80;;;;;;5070132;28;19908;-76
2023/12/18 13:34:46;;;;;;;;;;;256.20;2252.80;;;;;;5065765;28;20004;-77
2023/12/18 13:37:13;;;;;;;;;;;256.10;2252.80;;;;;;5087962;28;20012;-78
2023/12/18 13:39:41;;;;;;;;;;;230.90;2252.80;;;;;;5066150;28;20014;-77
2023/12/18 13:42:08;;;;;;;;;;;256.00;2252.80;;;;;;5089761;28;20349;-77